Time;durP1;ratioP1;P1;durP2;ratioP2;P2;SDS_P1;SDS_P2;PMS_P1;PMS_P2;Temp;Humidity;BMP_temperature;BMP_pressure;BME280_temperature;BME280_humidity;BME280_pressure;Samples;Min_cycle;Max_cycle;Signal;HPM_P1;HPM_P2
2023/08/09 00:02:22;;;;;;;3.10;1.90;;;16.60;99.90;;;;;;5033061;28;20507;-81
2023/08/09 00:04:49;;;;;;;3.67;2.33;;;16.60;99.90;;;;;;5033346;28;20572;-82
2023/08/09 00:07:16;;;;;;;2.17;1.93;;;16.60;99.90;;;;;;5033365;28;20879;-80
2023/08/09 00:09:43;;;;;;;5.13;2.00;;;16.60;99.90;;;;;;5032482;28;20823;-80
2023/08/09 00:12:11;;;;;;;2.30;2.10;;;16.60;99.90;;;;;;5033372;28;20475;-80
2023/08/09 00:14:38;;;;;;;1.73;1.63;;;16.50;99.90;;;;;;5032506;28;20472;-82
2023/08/09 00:17:05;;;;;;;2.97;1.83;;;16.60;99.90;;;;;;5033273;28;20491;-81
2023/08/09 00:19:32;;;;;;;1.87;1.77;;;16.60;99.90;;;;;;5032845;28;20520;-79
2023/08/09 00:21:59;;;;;;;2.50;2.30;;;16.60;99.90;;;;;;5033216;28;20798;-81
2023/08/09 00:24:28;;;;;;;2.10;1.90;;;16.60;99.90;;;;;;5032962;28;20547;-80
2023/08/09 00:26:55;;;;;;;4.77;1.60;;;16.60;99.90;;;;;;5033269;28;20472;-81
2023/08/09 00:29:24;;;;;;;3.00;1.77;;;16.60;99.90;;;;;;5036015;28;20530;-81
2023/08/09 00:31:51;;;;;;;2.70;1.90;;;16.50;99.90;;;;;;5037339;28;20530;-79
2023/08/09 00:34:17;;;;;;;2.47;1.80;;;16.50;99.90;;;;;;5036741;28;20479;-79
2023/08/09 00:36:44;;;;;;;1.90;1.80;;;16.50;99.90;;;;;;5037003;28;20514;-81
2023/08/09 00:39:12;;;;;;;2.50;1.80;;;16.50;99.90;;;;;;5037022;28;20804;-78
2023/08/09 00:41:43;;;;;;;2.80;1.60;;;16.50;99.90;;;;;;5036593;28;20865;-79
2023/08/09 00:44:10;;;;;;;3.33;1.70;;;16.50;99.90;;;;;;5036685;28;20468;-79
2023/08/09 00:46:39;;;;;;;2.07;1.70;;;16.50;99.90;;;;;;5036432;28;20498;-80
2023/08/09 00:49:07;;;;;;;1.83;1.73;;;16.50;99.90;;;;;;5036692;28;20469;-79
2023/08/09 00:51:34;;;;;;;2.00;1.63;;;16.50;99.90;;;;;;5035914;28;20551;-81
2023/08/09 00:54:02;;;;;;;1.67;1.57;;;16.50;99.90;;;;;;5036864;28;20551;-79
2023/08/09 00:56:29;;;;;;;1.70;1.53;;;16.50;99.90;;;;;;5035911;28;20550;-80
2023/08/09 00:58:56;;;;;;;2.50;1.90;;;16.60;99.90;;;;;;5036431;28;20608;-79
2023/08/09 01:01:22;;;;;;;2.30;1.93;;;16.60;99.90;;;;;;5036774;28;20472;-79
2023/08/09 01:03:51;;;;;;;3.87;2.23;;;16.60;99.90;;;;;;5018542;28;20491;-79
2023/08/09 01:06:30;;;;;;;2.60;2.27;;;16.60;99.90;;;;;;5016703;28;20562;-79
2023/08/09 01:09:08;;;;;;;2.33;1.73;;;16.60;99.90;;;;;;5016717;28;20530;-79
2023/08/09 01:11:45;;;;;;;2.47;1.63;;;16.60;99.90;;;;;;5015960;28;20468;-79
2023/08/09 01:14:13;;;;;;;2.90;1.40;;;16.60;99.90;;;;;;5016779;28;20507;-79
2023/08/09 01:16:40;;;;;;;3.80;2.20;;;16.60;99.90;;;;;;5027114;28;20472;-79
2023/08/09 01:19:18;;;;;;;2.43;1.90;;;16.60;99.90;;;;;;5036911;28;20507;-81
2023/08/09 01:21:48;;;;;;;3.10;1.63;;;16.60;99.90;;;;;;5035880;28;20551;-81
2023/08/09 01:24:17;;;;;;;2.33;1.90;;;16.60;99.90;;;;;;5036068;28;20507;-79
2023/08/09 01:26:45;;;;;;;2.73;2.53;;;16.70;99.90;;;;;;5034806;28;20993;-80
2023/08/09 01:29:12;;;;;;;4.67;2.20;;;16.70;99.90;;;;;;5036372;28;20468;-80
2023/08/09 01:31:39;;;;;;;2.30;2.20;;;16.70;99.90;;;;;;5035775;28;20538;-81
2023/08/09 01:34:06;;;;;;;3.43;2.50;;;16.70;99.90;;;;;;5036380;28;20472;-82
2023/08/09 01:36:35;;;;;;;2.20;2.00;;;16.70;99.90;;;;;;5036087;28;20468;-82
2023/08/09 01:39:07;;;;;;;2.10;1.67;;;16.70;99.90;;;;;;5036231;28;20456;-82
2023/08/09 01:41:36;;;;;;;3.00;1.83;;;16.70;99.90;;;;;;5036767;28;20921;-82
2023/08/09 01:44:08;;;;;;;2.10;1.70;;;16.70;99.90;;;;;;5035698;28;20456;-79
2023/08/09 01:46:36;;;;;;;3.00;1.70;;;16.70;99.90;;;;;;5035950;28;20468;-82
2023/08/09 01:49:10;;;;;;;2.07;1.50;;;16.70;99.90;;;;;;5035622;28;20484;-79
2023/08/09 01:51:38;;;;;;;3.13;1.63;;;16.70;99.90;;;;;;5035922;28;20471;-78
2023/08/09 01:54:06;;;;;;;1.73;1.60;;;16.70;99.90;;;;;;5023586;28;20485;-80
2023/08/09 01:56:35;;;;;;;1.80;1.57;;;16.70;99.90;;;;;;5016346;28;20469;-80
2023/08/09 01:59:04;;;;;;;1.70;1.30;;;16.70;99.90;;;;;;5016088;28;20465;-80
2023/08/09 02:01:31;;;;;;;2.37;1.50;;;16.70;99.90;;;;;;5016302;28;20538;-81
2023/08/09 02:04:03;;;;;;;2.90;1.57;;;16.70;99.90;;;;;;5017414;28;20556;-80
2023/08/09 02:06:31;;;;;;;1.70;1.57;;;16.70;99.90;;;;;;5017276;28;20536;-81
2023/08/09 02:08:58;;;;;;;2.63;1.50;;;16.70;99.90;;;;;;5015586;28;20473;-79
2023/08/09 02:11:25;;;;;;;3.17;1.83;;;16.70;99.90;;;;;;5015905;28;20476;-79
2023/08/09 02:13:54;;;;;;;1.43;1.33;;;16.70;99.90;;;;;;5022926;28;20517;-80
2023/08/09 02:16:21;;;;;;;3.00;1.60;;;16.70;99.90;;;;;;5018459;28;20806;-80
2023/08/09 02:18:48;;;;;;;2.47;1.43;;;16.80;99.90;;;;;;5015081;28;20473;-79
2023/08/09 02:21:18;;;;;;;2.27;1.40;;;16.70;99.90;;;;;;5016050;28;20476;-79
2023/08/09 02:23:45;;;;;;;1.87;1.73;;;16.70;99.90;;;;;;5015734;28;20469;-78
2023/08/09 02:26:13;;;;;;;1.67;1.57;;;16.70;99.90;;;;;;5015632;28;20543;-79
2023/08/09 02:28:41;;;;;;;2.03;1.53;;;16.70;99.90;;;;;;5017299;28;20480;-78
2023/08/09 02:31:10;;;;;;;1.73;1.63;;;16.70;99.90;;;;;;5021635;28;20935;-79
2023/08/09 02:33:38;;;;;;;2.00;1.50;;;16.80;99.90;;;;;;5017148;28;20468;-79
2023/08/09 02:36:05;;;;;;;1.37;1.27;;;16.80;99.90;;;;;;5014924;28;20492;-79
2023/08/09 02:38:33;;;;;;;1.60;1.50;;;16.80;99.90;;;;;;5015865;28;20465;-79
2023/08/09 02:41:01;;;;;;;4.47;2.70;;;16.80;99.90;;;;;;5015566;28;20794;-80
2023/08/09 02:43:28;;;;;;;1.67;1.50;;;16.80;99.90;;;;;;5015439;28;20469;-79
2023/08/09 02:45:56;;;;;;;3.60;1.50;;;16.70;99.90;;;;;;5015236;28;20469;-79
2023/08/09 02:48:26;;;;;;;2.03;1.70;;;16.80;99.90;;;;;;5015373;28;20524;-80
2023/08/09 02:50:53;;;;;;;2.30;1.40;;;16.70;99.90;;;;;;5014275;28;20983;-80
2023/08/09 02:53:22;;;;;;;2.70;1.50;;;16.80;99.90;;;;;;5014581;28;20877;-79
2023/08/09 02:55:53;;;;;;;3.97;1.63;;;16.80;99.90;;;;;;5015100;28;20473;-79
2023/08/09 02:58:20;;;;;;;1.80;1.50;;;16.80;99.90;;;;;;5015504;28;20500;-80
2023/08/09 03:00:47;;;;;;;2.87;1.83;;;16.80;99.90;;;;;;5014242;28;20508;-79
2023/08/09 03:03:14;;;;;;;1.63;1.53;;;16.70;99.90;;;;;;5014544;28;20538;-80
2023/08/09 03:05:42;;;;;;;2.13;1.93;;;16.70;99.90;;;;;;5014358;28;20473;-80
2023/08/09 03:08:09;;;;;;;4.03;1.80;;;16.70;99.90;;;;;;5014220;28;20464;-80
2023/08/09 03:10:36;;;;;;;1.73;1.63;;;16.70;99.90;;;;;;5021338;28;20572;-79
2023/08/09 03:13:03;;;;;;;9.23;1.93;;;16.70;99.90;;;;;;5014753;28;20500;-79
2023/08/09 03:15:30;;;;;;;1.57;1.30;;;16.70;99.90;;;;;;5014565;28;20869;-80
2023/08/09 03:17:57;;;;;;;2.03;1.80;;;16.70;99.90;;;;;;5014207;28;20504;-80
2023/08/09 03:20:27;;;;;;;1.70;1.50;;;16.70;99.90;;;;;;5014611;28;20948;-80
2023/08/09 03:22:57;;;;;;;2.10;1.37;;;16.70;99.90;;;;;;5013862;28;20468;-80
2023/08/09 03:25:24;;;;;;;1.57;1.20;;;16.70;99.90;;;;;;5013534;28;20544;-80
2023/08/09 03:27:51;;;;;;;3.03;1.50;;;16.70;99.90;;;;;;5014011;28;20489;-81
2023/08/09 03:30:18;;;;;;;2.80;1.33;;;16.70;99.90;;;;;;5014397;28;20485;-81
2023/08/09 03:32:45;;;;;;;1.50;1.40;;;16.70;99.90;;;;;;5014422;28;20479;-81
2023/08/09 03:35:15;;;;;;;1.30;1.13;;;16.70;99.90;;;;;;5013747;28;20552;-79
2023/08/09 03:37:42;;;;;;;3.10;1.60;;;16.70;99.90;;;;;;5014438;28;20544;-80
2023/08/09 03:40:19;;;;;;;1.67;1.20;;;16.70;99.90;;;;;;5013695;28;20496;-80
2023/08/09 03:42:46;;;;;;;1.47;1.27;;;16.70;99.90;;;;;;5003909;28;20484;-81
2023/08/09 03:45:22;;;;;;;2.63;1.60;;;16.70;99.90;;;;;;5014343;28;20563;-80
2023/08/09 03:47:49;;;;;;;2.20;2.00;;;16.70;99.90;;;;;;5014539;28;20473;-81
2023/08/09 03:50:17;;;;;;;1.60;1.50;;;16.70;99.90;;;;;;5013997;28;20499;-79
2023/08/09 03:52:44;;;;;;;1.80;1.57;;;16.60;99.90;;;;;;5014286;28;20469;-81
2023/08/09 03:55:13;;;;;;;2.13;1.70;;;16.60;99.90;;;;;;5012950;28;20539;-80
2023/08/09 03:57:40;;;;;;;1.77;1.63;;;16.60;99.90;;;;;;5014927;28;20871;-81
2023/08/09 04:00:09;;;;;;;1.83;1.50;;;16.60;99.90;;;;;;5014080;28;20497;-81
2023/08/09 04:02:36;;;;;;;1.60;1.50;;;16.60;99.90;;;;;;5013902;28;20477;-81
2023/08/09 04:05:05;;;;;;;2.43;2.23;;;16.60;99.90;;;;;;5013497;28;20871;-80
2023/08/09 04:07:32;;;;;;;1.83;1.60;;;16.60;99.90;;;;;;5014690;28;20495;-81
2023/08/09 04:09:59;;;;;;;3.50;1.70;;;16.60;99.90;;;;;;5013930;28;20472;-81
2023/08/09 04:12:27;;;;;;;4.73;1.90;;;16.60;99.90;;;;;;5014544;28;20536;-78
2023/08/09 04:14:54;;;;;;;3.87;1.60;;;16.60;99.90;;;;;;5014671;28;20975;-81
2023/08/09 04:17:48;;;;;;;2.57;1.77;;;16.60;99.90;;;;;;5013603;28;20542;-79
2023/08/09 04:20:42;;;;;;;2.37;1.80;;;16.60;99.90;;;;;;5012480;28;20476;-81
2023/08/09 04:23:12;;;;;;;2.70;1.80;;;16.60;99.90;;;;;;5013032;28;20473;-80
2023/08/09 04:25:50;;;;;;;2.27;2.03;;;16.60;99.90;;;;;;5001800;28;20516;-80
2023/08/09 04:28:35;;;;;;;2.50;2.13;;;16.60;99.90;;;;;;5013156;28;20469;-80
2023/08/09 04:31:03;;;;;;;4.83;1.87;;;16.50;99.90;;;;;;5005490;28;20473;-78
2023/08/09 04:33:30;;;;;;;2.33;1.90;;;16.50;99.90;;;;;;5013220;28;20505;-80
2023/08/09 04:35:57;;;;;;;2.30;2.10;;;16.50;99.90;;;;;;5013510;28;20473;-80
2023/08/09 04:38:24;;;;;;;5.90;2.00;;;16.60;99.90;;;;;;5013218;28;20483;-80
2023/08/09 04:40:51;;;;;;;6.40;1.63;;;16.60;99.90;;;;;;5012802;28;20955;-79
2023/08/09 04:43:18;;;;;;;3.83;2.40;;;16.60;99.90;;;;;;5013225;28;20477;-80
2023/08/09 04:45:47;;;;;;;2.00;1.90;;;16.60;99.90;;;;;;5013873;28;20552;-80
2023/08/09 04:48:17;;;;;;;2.27;2.07;;;16.60;99.90;;;;;;5012525;28;20465;-78
2023/08/09 04:50:44;;;;;;;2.67;1.70;;;16.70;99.90;;;;;;5013262;28;20540;-78
2023/08/09 04:53:18;;;;;;;3.43;1.87;;;16.70;99.90;;;;;;5013389;28;20974;-80
2023/08/09 04:55:46;;;;;;;2.23;2.03;;;16.70;99.90;;;;;;5013097;28;20463;-78
2023/08/09 04:58:13;;;;;;;3.63;1.93;;;16.70;99.90;;;;;;5013970;28;20476;-81
2023/08/09 05:00:40;;;;;;;3.27;2.00;;;16.70;99.90;;;;;;5012605;28;20477;-80
2023/08/09 05:03:11;;;;;;;2.40;1.97;;;16.70;99.90;;;;;;5013592;28;20865;-80
2023/08/09 05:05:38;;;;;;;3.53;2.33;;;16.70;99.90;;;;;;5012992;28;20480;-80
2023/08/09 05:08:05;;;;;;;2.70;1.90;;;16.80;99.90;;;;;;5013356;28;20465;-81
2023/08/09 05:10:32;;;;;;;2.87;1.80;;;16.80;99.90;;;;;;5012976;28;20527;-79
2023/08/09 05:12:59;;;;;;;5.07;2.50;;;16.80;99.90;;;;;;5013212;28;20464;-79
2023/08/09 05:15:26;;;;;;;2.93;2.50;;;16.80;99.90;;;;;;5013955;28;20967;-79
2023/08/09 05:17:53;;;;;;;6.20;2.00;;;16.80;99.90;;;;;;5016884;28;20484;-78
2023/08/09 05:20:24;;;;;;;5.90;1.90;;;16.80;99.90;;;;;;5016746;28;20469;-79
2023/08/09 05:22:51;;;;;;;4.23;2.00;;;16.80;99.90;;;;;;5016287;28;20556;-79
2023/08/09 05:25:19;;;;;;;2.00;1.80;;;16.80;99.90;;;;;;5016594;28;20507;-80
2023/08/09 05:27:48;;;;;;;3.40;2.37;;;16.80;99.90;;;;;;5020766;28;20487;-79
2023/08/09 05:30:15;;;;;;;3.33;2.50;;;16.80;99.90;;;;;;5020110;28;20464;-79
2023/08/09 05:32:42;;;;;;;3.10;1.53;;;16.80;99.90;;;;;;5017262;28;20473;-79
2023/08/09 05:35:10;;;;;;;2.13;1.73;;;16.80;99.90;;;;;;5015992;28;21050;-78
2023/08/09 05:37:38;;;;;;;3.00;1.43;;;16.80;99.90;;;;;;5015176;28;20476;-82
2023/08/09 05:40:07;;;;;;;3.10;1.90;;;16.90;99.90;;;;;;5016140;28;20465;-81
2023/08/09 05:42:34;;;;;;;2.43;1.80;;;16.80;99.90;;;;;;5016340;28;20517;-79
2023/08/09 05:45:01;;;;;;;3.33;1.70;;;16.90;99.90;;;;;;5015817;28;20861;-81
2023/08/09 05:47:28;;;;;;;3.00;1.87;;;16.90;99.90;;;;;;5016263;28;20571;-78
2023/08/09 05:49:55;;;;;;;4.20;1.87;;;16.90;99.90;;;;;;5015307;28;20535;-81
2023/08/09 05:52:22;;;;;;;3.30;1.67;;;17.00;99.90;;;;;;5016176;28;20488;-81
2023/08/09 05:54:51;;;;;;;2.23;1.80;;;17.00;99.90;;;;;;5015642;28;20565;-79
2023/08/09 05:57:18;;;;;;;3.03;1.70;;;17.00;99.90;;;;;;5015396;28;20538;-80
2023/08/09 05:59:46;;;;;;;2.43;1.50;;;17.10;99.90;;;;;;5015546;28;20458;-78
2023/08/09 06:02:13;;;;;;;2.90;1.53;;;17.10;99.90;;;;;;5015906;28;20504;-80
2023/08/09 06:04:41;;;;;;;2.07;1.60;;;17.10;99.90;;;;;;5015321;28;20477;-80
2023/08/09 06:07:09;;;;;;;3.90;2.20;;;17.20;99.90;;;;;;5015134;28;20499;-79
2023/08/09 06:09:36;;;;;;;1.37;1.10;;;17.20;99.90;;;;;;5015870;28;20493;-79
2023/08/09 06:12:07;;;;;;;2.90;1.73;;;17.30;99.90;;;;;;5015105;28;20473;-78
2023/08/09 06:14:34;;;;;;;4.13;1.87;;;17.40;99.90;;;;;;5015431;28;20477;-78
2023/08/09 06:17:01;;;;;;;5.10;1.63;;;17.50;99.90;;;;;;5015204;28;20959;-79
2023/08/09 06:19:28;;;;;;;4.30;1.67;;;17.60;99.90;;;;;;5015229;28;20500;-79
2023/08/09 06:21:55;;;;;;;2.20;1.37;;;17.70;99.90;;;;;;5015145;28;20480;-81
2023/08/09 06:24:22;;;;;;;5.60;1.90;;;17.70;99.90;;;;;;5015593;28;20548;-78
2023/08/09 06:26:49;;;;;;;2.20;1.53;;;17.80;99.90;;;;;;5014551;28;20476;-79
2023/08/09 06:29:19;;;;;;;2.20;1.50;;;17.90;99.90;;;;;;5015548;28;20481;-80
2023/08/09 06:31:47;;;;;;;4.87;2.70;;;17.90;99.90;;;;;;5014749;28;20477;-79
2023/08/09 06:34:14;;;;;;;2.93;2.57;;;17.90;99.90;;;;;;5015070;28;20889;-80
2023/08/09 06:36:42;;;;;;;3.93;1.73;;;17.90;99.90;;;;;;5006094;28;20477;-80
2023/08/09 06:39:09;;;;;;;2.37;2.00;;;17.90;99.90;;;;;;5003347;28;20489;-80
2023/08/09 06:41:36;;;;;;;2.87;2.30;;;18.00;99.90;;;;;;5003674;28;20509;-80
2023/08/09 06:44:03;;;;;;;3.93;2.30;;;18.00;99.90;;;;;;5005505;28;20470;-81
2023/08/09 06:46:32;;;;;;;2.10;1.60;;;18.00;99.90;;;;;;5006428;28;20554;-80
2023/08/09 06:48:58;;;;;;;2.70;1.70;;;18.10;99.90;;;;;;5005112;28;20527;-80
2023/08/09 06:51:26;;;;;;;3.20;1.90;;;18.00;99.90;;;;;;5003335;28;20473;-81
2023/08/09 06:53:52;;;;;;;4.23;2.30;;;18.10;99.90;;;;;;5003691;28;20488;-79
2023/08/09 06:56:19;;;;;;;5.03;2.00;;;18.20;99.90;;;;;;5007314;28;20945;-79
2023/08/09 06:58:46;;;;;;;2.60;1.90;;;18.20;99.90;;;;;;5006705;28;20512;-79
2023/08/09 07:01:13;;;;;;;2.83;1.70;;;18.30;99.90;;;;;;5002946;28;20457;-79
2023/08/09 07:03:41;;;;;;;5.13;1.80;;;18.40;99.90;;;;;;5003338;28;20562;-80
2023/08/09 07:06:11;;;;;;;5.13;1.87;;;18.50;99.90;;;;;;5005292;28;20835;-81
2023/08/09 07:08:39;;;;;;;3.47;1.47;;;18.50;99.90;;;;;;5006603;28;20476;-80
2023/08/09 07:11:06;;;;;;;1.83;1.60;;;18.60;99.90;;;;;;5003789;28;20864;-80
2023/08/09 07:13:33;;;;;;;2.70;1.70;;;18.70;99.90;;;;;;5002555;28;20552;-80
2023/08/09 07:16:00;;;;;;;3.93;2.53;;;18.70;99.90;;;;;;5003711;28;20482;-80
2023/08/09 07:18:26;;;;;;;5.17;1.60;;;18.80;99.90;;;;;;5006465;28;20803;-81
2023/08/09 07:20:55;;;;;;;4.03;1.90;;;18.90;99.90;;;;;;5005673;28;20496;-81
2023/08/09 07:23:22;;;;;;;3.53;2.20;;;18.90;99.90;;;;;;5007084;28;20476;-82
2023/08/09 07:25:48;;;;;;;5.73;1.47;;;19.00;99.90;;;;;;5005691;28;20836;-82
2023/08/09 07:28:15;;;;;;;3.37;1.73;;;19.10;99.90;;;;;;5002300;28;20454;-81
2023/08/09 07:30:42;;;;;;;3.20;2.00;;;19.20;99.90;;;;;;5002218;28;20882;-81
2023/08/09 07:33:13;;;;;;;5.13;2.07;;;19.30;99.90;;;;;;5004256;28;20861;-81
2023/08/09 07:35:40;;;;;;;5.97;1.60;;;19.30;99.90;;;;;;5008846;28;20489;-81
2023/08/09 07:38:09;;;;;;;2.50;1.70;;;19.40;99.90;;;;;;5012537;28;21240;-81
2023/08/09 07:40:36;;;;;;;4.33;2.57;;;19.40;99.90;;;;;;5013617;28;20476;-80
2023/08/09 07:43:03;;;;;;;2.90;1.87;;;19.40;99.90;;;;;;5003105;28;20834;-80
2023/08/09 07:45:30;;;;;;;3.17;1.60;;;19.50;99.90;;;;;;5013997;28;20814;-80
2023/08/09 07:47:59;;;;;;;3.30;1.70;;;19.50;99.90;;;;;;5013795;28;20492;-80
2023/08/09 07:50:28;;;;;;;7.03;2.30;;;19.60;99.90;;;;;;5013808;28;20540;-80
2023/08/09 07:52:55;;;;;;;5.23;2.00;;;19.70;99.90;;;;;;5013466;28;20465;-80
2023/08/09 07:55:26;;;;;;;18.43;3.43;;;19.70;99.90;;;;;;5013300;28;20549;-80
2023/08/09 07:57:54;;;;;;;18.23;3.47;;;19.80;99.90;;;;;;5013572;28;20811;-79
2023/08/09 08:00:21;;;;;;;8.27;2.30;;;19.80;99.90;;;;;;5013439;28;20496;-79
2023/08/09 08:02:59;;;;;;;2.70;1.80;;;19.90;99.90;;;;;;5013657;28;20864;-80
2023/08/09 08:05:26;;;;;;;5.47;1.60;;;20.10;99.90;;;;;;5017399;28;20528;-79
2023/08/09 08:07:53;;;;;;;3.10;1.77;;;20.10;99.90;;;;;;5013661;28;20461;-81
2023/08/09 08:10:23;;;;;;;4.07;2.00;;;20.20;99.90;;;;;;5012711;28;20473;-79
2023/08/09 08:12:50;;;;;;;3.40;1.60;;;20.20;99.90;;;;;;5013515;28;21013;-80
2023/08/09 08:15:20;;;;;;;7.37;2.77;;;20.30;99.90;;;;;;5013356;28;20556;-81
2023/08/09 08:17:48;;;;;;;4.53;1.93;;;20.20;99.90;;;;;;5013148;28;20476;-80
2023/08/09 08:20:17;;;;;;;6.03;2.80;;;20.20;99.90;;;;;;5011071;28;20535;-80
2023/08/09 08:22:44;;;;;;;3.30;1.60;;;20.20;99.90;;;;;;5013960;28;20468;-79
2023/08/09 08:25:12;;;;;;;3.07;2.03;;;20.20;99.90;;;;;;4995444;28;20481;-80
2023/08/09 08:27:43;;;;;;;4.30;2.10;;;20.20;99.90;;;;;;5013504;28;20497;-78
2023/08/09 08:30:14;;;;;;;3.53;1.70;;;20.30;99.90;;;;;;5012905;28;20465;-79
2023/08/09 08:32:43;;;;;;;5.80;1.50;;;20.40;99.90;;;;;;5013395;28;20453;-81
2023/08/09 08:35:11;;;;;;;6.53;2.10;;;20.40;99.90;;;;;;5013196;28;20464;-81
2023/08/09 08:37:45;;;;;;;8.40;2.03;;;20.30;99.90;;;;;;5009482;28;20560;-80
2023/08/09 08:40:17;;;;;;;4.63;2.33;;;20.40;99.90;;;;;;5013111;28;20515;-79
2023/08/09 08:42:46;;;;;;;7.17;1.70;;;20.60;99.90;;;;;;5012479;28;20453;-81
2023/08/09 08:45:15;;;;;;;2.83;1.77;;;20.60;99.90;;;;;;5013337;28;20473;-80
2023/08/09 08:47:43;;;;;;;3.10;2.10;;;20.60;99.90;;;;;;5011589;28;20970;-80
2023/08/09 08:50:12;;;;;;;6.50;3.13;;;20.70;99.90;;;;;;5013502;28;20496;-80
2023/08/09 08:52:43;;;;;;;3.60;3.07;;;20.80;99.90;;;;;;5016868;28;20554;-80
2023/08/09 08:55:12;;;;;;;7.73;3.03;;;20.80;99.90;;;;;;5016300;28;21013;-81
2023/08/09 08:57:41;;;;;;;4.27;2.33;;;20.90;99.90;;;;;;5016634;28;20477;-79
2023/08/09 09:00:15;;;;;;;5.93;2.27;;;20.90;99.90;;;;;;5016950;28;21047;-79
2023/08/09 09:02:43;;;;;;;3.43;1.73;;;21.00;99.90;;;;;;5017091;28;20543;-80
2023/08/09 09:05:17;;;;;;;3.20;2.03;;;21.00;99.90;;;;;;5016590;28;20583;-80
2023/08/09 09:07:46;;;;;;;3.30;2.23;;;21.10;99.90;;;;;;5016564;28;20771;-80
2023/08/09 09:10:17;;;;;;;5.37;2.10;;;21.10;99.90;;;;;;5017081;28;20473;-80
2023/08/09 09:12:44;;;;;;;4.80;2.10;;;21.10;99.90;;;;;;5016112;28;20449;-80
2023/08/09 09:15:14;;;;;;;2.57;1.77;;;21.20;99.90;;;;;;5007124;28;20810;-81
2023/08/09 09:17:44;;;;;;;2.27;1.50;;;21.20;99.90;;;;;;5016300;28;20465;-81
2023/08/09 09:20:18;;;;;;;4.10;2.50;;;21.30;99.90;;;;;;5016130;28;20464;-79
2023/08/09 09:22:44;;;;;;;4.03;2.13;;;21.30;99.90;;;;;;5015222;28;20498;-80
2023/08/09 09:25:14;;;;;;;3.77;1.87;;;21.30;99.90;;;;;;5021795;28;20977;-81
2023/08/09 09:27:42;;;;;;;2.00;1.53;;;21.40;99.90;;;;;;5016016;28;20472;-80
2023/08/09 09:30:13;;;;;;;9.17;2.03;;;21.40;99.90;;;;;;5016457;28;20595;-80
2023/08/09 09:32:56;;;;;;;2.50;1.40;;;21.40;99.90;;;;;;5015631;28;20501;-80
2023/08/09 09:35:25;;;;;;;1.70;1.50;;;21.50;99.90;;;;;;5016238;28;20792;-78
2023/08/09 09:37:53;;;;;;;2.30;1.20;;;21.50;99.90;;;;;;5015997;28;20477;-80
2023/08/09 09:40:23;;;;;;;1.90;1.70;;;21.50;99.90;;;;;;5016420;28;20480;-79
2023/08/09 09:42:54;;;;;;;2.70;1.70;;;21.50;99.90;;;;;;5015687;28;20493;-80
2023/08/09 09:45:24;;;;;;;2.50;1.60;;;21.60;99.90;;;;;;5016275;28;20473;-80
2023/08/09 09:47:54;;;;;;;2.67;1.97;;;21.60;99.90;;;;;;5015741;28;20568;-78
2023/08/09 09:50:23;;;;;;;4.40;2.10;;;21.70;99.90;;;;;;5015891;28;20487;-79
2023/08/09 09:52:52;;;;;;;5.50;2.20;;;21.70;99.90;;;;;;5015750;28;20549;-79
2023/08/09 09:55:20;;;;;;;3.80;2.00;;;21.70;99.90;;;;;;5011563;28;21023;-79
2023/08/09 09:57:48;;;;;;;4.23;1.50;;;21.60;99.90;;;;;;5026210;28;20555;-80
2023/08/09 10:00:15;;;;;;;4.73;2.00;;;21.60;99.90;;;;;;5015028;28;20461;-81
2023/08/09 10:02:47;;;;;;;3.80;1.40;;;21.60;99.90;;;;;;5015734;28;20508;-80
2023/08/09 10:05:21;;;;;;;2.40;1.63;;;21.60;99.90;;;;;;5014336;28;20472;-79
2023/08/09 10:07:49;;;;;;;3.27;1.67;;;21.60;99.90;;;;;;5015941;28;20842;-79
2023/08/09 10:10:27;;;;;;;3.57;1.70;;;21.50;99.90;;;;;;5023812;28;20481;-80
2023/08/09 10:13:01;;;;;;;3.80;1.43;;;21.50;99.90;;;;;;5014910;28;20851;-79
2023/08/09 10:15:46;;;;;;;3.90;2.00;;;21.50;99.90;;;;;;5015851;28;20822;-80
2023/08/09 10:18:23;;;;;;;2.90;1.50;;;21.50;99.90;;;;;;5015064;28;20476;-80
2023/08/09 10:20:55;;;;;;;9.03;2.43;;;21.50;99.90;;;;;;5015542;28;20468;-78
2023/08/09 10:23:25;;;;;;;1.70;1.20;;;21.60;99.90;;;;;;5015606;28;20929;-79
2023/08/09 10:25:53;;;;;;;3.97;1.67;;;21.70;99.90;;;;;;5015864;28;20473;-80
2023/08/09 10:29:01;;;;;;;8.47;2.20;;;21.70;99.90;;;;;;5015321;28;20946;-82
2023/08/09 10:31:48;;;;;;;10.87;2.77;;;21.80;99.90;;;;;;5005520;28;20469;-78
2023/08/09 10:34:20;;;;;;;3.80;1.97;;;21.80;99.90;;;;;;5014601;28;20472;-80
2023/08/09 10:36:54;;;;;;;4.10;1.40;;;21.80;99.90;;;;;;5007302;28;20465;-81
2023/08/09 10:39:22;;;;;;;4.47;1.93;;;21.80;99.90;;;;;;5004518;28;20472;-80
2023/08/09 10:42:01;;;;;;;2.57;1.77;;;21.80;99.90;;;;;;5003776;28;20557;-78
2023/08/09 10:44:38;;;;;;;3.60;1.67;;;21.80;99.90;;;;;;5006424;28;20923;-78
2023/08/09 10:47:06;;;;;;;2.70;1.40;;;21.80;99.90;;;;;;5007277;28;20468;-80
2023/08/09 10:49:49;;;;;;;3.50;2.43;;;21.80;99.90;;;;;;5006817;28;20791;-79
2023/08/09 10:52:20;;;;;;;17.90;4.33;;;21.80;99.90;;;;;;4990955;28;21021;-80
2023/08/09 10:54:49;;;;;;;11.07;3.00;;;21.80;99.90;;;;;;5003410;28;20568;-79
2023/08/09 10:57:17;;;;;;;3.60;1.80;;;21.80;99.90;;;;;;5003613;28;20462;-79
2023/08/09 10:59:57;;;;;;;3.13;1.60;;;21.80;99.90;;;;;;5007073;28;20512;-79
2023/08/09 11:02:32;;;;;;;2.80;1.70;;;21.80;99.90;;;;;;5005119;28;20491;-80
2023/08/09 11:04:59;;;;;;;2.70;1.73;;;21.80;99.90;;;;;;4999949;28;20492;-79
2023/08/09 11:07:32;;;;;;;2.90;1.70;;;21.80;99.90;;;;;;5008637;28;20524;-79
2023/08/09 11:10:01;;;;;;;2.50;1.77;;;21.90;99.90;;;;;;5009986;28;20899;-80
2023/08/09 11:12:29;;;;;;;2.97;1.90;;;21.90;99.90;;;;;;5004249;28;20473;-79
2023/08/09 11:14:56;;;;;;;4.57;1.90;;;21.90;99.90;;;;;;5002984;28;20560;-79
2023/08/09 11:17:24;;;;;;;3.10;1.97;;;21.90;99.90;;;;;;5011105;28;20561;-79
2023/08/09 11:19:50;;;;;;;2.27;2.07;;;21.80;99.90;;;;;;5003287;28;20968;-79
2023/08/09 11:22:17;;;;;;;5.80;1.77;;;21.90;99.90;;;;;;5003624;28;20470;-80
2023/08/09 11:24:46;;;;;;;5.63;1.90;;;21.90;99.90;;;;;;5009533;28;20504;-80
2023/08/09 11:27:13;;;;;;;4.03;1.83;;;22.00;99.90;;;;;;5007319;28;20567;-80
2023/08/09 11:29:40;;;;;;;2.67;1.60;;;22.10;99.90;;;;;;5003216;28;20545;-80
2023/08/09 11:32:10;;;;;;;1.50;1.37;;;22.10;99.90;;;;;;5002925;28;20561;-80
2023/08/09 11:34:37;;;;;;;1.97;1.63;;;22.20;99.90;;;;;;5005165;28;20478;-80
2023/08/09 11:37:10;;;;;;;5.53;1.77;;;22.30;99.90;;;;;;5006722;28;20465;-79
2023/08/09 11:39:40;;;;;;;3.43;1.80;;;22.30;99.90;;;;;;5008094;28;20468;-81
2023/08/09 11:42:08;;;;;;;1.83;1.60;;;22.40;99.90;;;;;;5004335;28;20541;-79
2023/08/09 11:44:35;;;;;;;5.30;2.40;;;22.40;99.90;;;;;;5004469;28;20535;-82
2023/08/09 11:47:03;;;;;;;3.00;1.57;;;22.40;99.90;;;;;;5006365;28;20471;-80
2023/08/09 11:49:31;;;;;;;2.80;1.83;;;22.40;99.90;;;;;;5004821;28;20915;-80
2023/08/09 11:52:01;;;;;;;2.57;1.63;;;22.40;99.90;;;;;;5002722;28;20557;-80
2023/08/09 11:54:29;;;;;;;3.07;1.83;;;22.30;99.90;;;;;;5002929;28;20865;-81
2023/08/09 11:56:58;;;;;;;5.07;2.17;;;22.20;99.90;;;;;;5005984;28;20547;-80
2023/08/09 11:59:29;;;;;;;2.17;1.60;;;22.20;99.90;;;;;;5004654;28;20496;-79
2023/08/09 12:01:57;;;;;;;2.77;1.40;;;22.20;99.90;;;;;;5001094;28;20751;-79
2023/08/09 12:04:29;;;;;;;1.97;1.57;;;22.20;99.90;;;;;;5001810;28;20478;-80
2023/08/09 12:07:00;;;;;;;1.70;1.30;;;22.20;99.90;;;;;;5005244;28;20473;-80
2023/08/09 12:09:34;;;;;;;2.20;1.60;;;22.20;99.90;;;;;;5004883;28;20481;-79
2023/08/09 12:12:04;;;;;;;1.87;1.30;;;22.20;99.90;;;;;;5005197;28;20540;-80
2023/08/09 12:14:35;;;;;;;2.70;1.33;;;22.20;99.90;;;;;;5005385;28;20487;-80
2023/08/09 12:17:05;;;;;;;3.33;1.20;;;22.20;99.90;;;;;;5005047;28;20456;-80
2023/08/09 12:19:32;;;;;;;14.27;7.93;;;22.10;99.90;;;;;;5013539;28;20473;-80
2023/08/09 12:22:01;;;;;;;37.10;23.77;;;22.20;99.90;;;;;;5013154;28;20815;-80
2023/08/09 12:24:28;;;;;;;24.33;12.90;;;22.10;99.90;;;;;;5015295;28;20473;-80
2023/08/09 12:26:58;;;;;;;17.90;9.10;;;22.10;99.90;;;;;;5017028;28;20481;-80
2023/08/09 12:29:26;;;;;;;4.53;3.57;;;22.10;99.90;;;;;;5017510;28;20468;-80
2023/08/09 12:31:57;;;;;;;6.10;4.17;;;22.20;99.90;;;;;;5017116;28;20477;-80
2023/08/09 12:34:25;;;;;;;7.67;5.53;;;22.20;99.90;;;;;;5020495;28;20523;-78
2023/08/09 12:36:53;;;;;;;7.20;4.10;;;22.30;99.90;;;;;;5023897;28;20473;-78
2023/08/09 12:39:21;;;;;;;7.10;3.50;;;22.40;99.90;;;;;;5015255;28;20476;-78
2023/08/09 12:41:52;;;;;;;5.30;3.50;;;22.40;99.90;;;;;;5017034;28;20822;-79
2023/08/09 12:44:22;;;;;;;4.53;3.20;;;22.40;99.90;;;;;;5016217;28;20571;-79
2023/08/09 12:46:55;;;;;;;3.80;2.67;;;22.40;99.90;;;;;;5024740;28;20559;-79
2023/08/09 12:49:26;;;;;;;8.33;4.57;;;22.40;99.90;;;;;;5016690;28;20519;-80
2023/08/09 12:51:58;;;;;;;3.50;2.87;;;22.50;99.90;;;;;;5016282;28;20464;-79
2023/08/09 12:54:27;;;;;;;3.23;2.10;;;22.50;99.90;;;;;;5016851;28;20506;-79
2023/08/09 12:56:57;;;;;;;4.80;3.07;;;22.40;99.90;;;;;;5016050;28;20477;-79